Fairfax, Missouri
Current Conditions -  °F | °C
As of 7:53 AM on Wednesday 28 Jan 2015 (Local Time) from KFNB Reporting Station
Clear Clear  
Wind Chill: 28°   Ceiling: Unl
Heat Index: 34°   Visibility: 10mi
Dew Point: 28°   Wind: 7mph
Humidity: 79%   Direction: 130°SE
Pressure: 29.88"   Gusts: NA
Location:  40.34°N, 95.39°W
Report Text: KFNB 281353Z AUTO 13006KT 10SM CLR 01/M02 A2988 RMK AO2 SLP123 T00111022
Loading
Personal Weather Stations






























Interactive Weather Map New forecast layout! Learn more

10-Day Weather Forecast

Advertisements
Track Severe Weather on mobile